Time;durP1;ratioP1;P1;durP2;ratioP2;P2;SDS_P1;SDS_P2;PMS_P1;PMS_P2;Temp;Humidity;BMP_temperature;BMP_pressure;BME280_temperature;BME280_humidity;BME280_pressure;Samples;Min_cycle;Max_cycle;Signal;HPM_P1;HPM_P2
2022/10/29 00:01:04;;;;;;;10.07;3.60;;;12.00;99.90;;;;;;4767124;30;20087;-78
2022/10/29 00:03:32;;;;;;;17.27;4.78;;;12.00;99.90;;;;;;4751312;30;20056;-78
2022/10/29 00:06:01;;;;;;;8.85;3.70;;;11.90;99.90;;;;;;4766316;30;20418;-80
2022/10/29 00:08:31;;;;;;;12.57;5.03;;;11.90;99.90;;;;;;4764555;30;20059;-80
2022/10/29 00:11:07;;;;;;;16.92;4.63;;;11.90;99.90;;;;;;4749249;30;20052;-81
2022/10/29 00:13:35;;;;;;;7.28;4.57;;;11.90;99.90;;;;;;4763265;30;20083;-80
2022/10/29 00:16:05;;;;;;;16.23;4.47;;;11.90;99.90;;;;;;4769941;30;20429;-81
2022/10/29 00:18:32;;;;;;;14.35;4.20;;;11.90;99.90;;;;;;4752750;30;20040;-80
2022/10/29 00:21:01;;;;;;;19.75;4.88;;;11.90;99.90;;;;;;4772482;30;20063;-81
2022/10/29 00:23:33;;;;;;;9.50;3.60;;;11.90;99.90;;;;;;4769165;30;20470;-82
2022/10/29 00:26:02;;;;;;;12.75;3.63;;;11.90;99.90;;;;;;4767327;30;20056;-81
2022/10/29 00:28:29;;;;;;;8.82;3.50;;;11.80;99.90;;;;;;4772169;30;20059;-79
2022/10/29 00:30:56;;;;;;;8.50;3.20;;;11.80;99.90;;;;;;4788040;29;20452;-80
2022/10/29 00:33:24;;;;;;;9.82;3.72;;;11.80;99.90;;;;;;4778498;29;20063;-81
2022/10/29 00:35:56;;;;;;;5.22;3.15;;;11.80;99.90;;;;;;4769768;30;20545;-81
2022/10/29 00:38:25;;;;;;;12.90;4.18;;;11.90;99.90;;;;;;4770726;30;20059;-80
2022/10/29 00:40:55;;;;;;;6.93;3.97;;;11.90;99.90;;;;;;4770726;30;20058;-79
2022/10/29 00:43:24;;;;;;;10.77;5.30;;;11.90;99.90;;;;;;4753075;30;20055;-81
2022/10/29 00:45:54;;;;;;;20.08;9.00;;;12.00;99.90;;;;;;4769634;30;20066;-78
2022/10/29 00:48:23;;;;;;;23.58;10.07;;;12.00;99.90;;;;;;4769839;30;20492;-79
2022/10/29 00:50:51;;;;;;;23.20;10.48;;;12.00;99.90;;;;;;4770139;30;20051;-79
2022/10/29 00:53:26;;;;;;;22.80;12.32;;;12.00;99.90;;;;;;4768856;30;20055;-78
2022/10/29 00:55:56;;;;;;;21.58;11.57;;;11.90;99.90;;;;;;4770178;30;20159;-78
2022/10/29 00:58:23;;;;;;;20.20;10.77;;;11.90;99.90;;;;;;4768448;30;20062;-80
2022/10/29 01:00:51;;;;;;;14.77;8.90;;;11.90;99.90;;;;;;4768713;30;20091;-80
2022/10/29 01:03:20;;;;;;;15.68;7.97;;;11.90;99.90;;;;;;4758559;30;20121;-80
2022/10/29 01:05:49;;;;;;;14.45;8.73;;;11.90;99.90;;;;;;4769876;30;20059;-80
2022/10/29 01:08:22;;;;;;;22.00;9.57;;;11.90;99.90;;;;;;4770317;30;20434;-82
2022/10/29 01:11:05;;;;;;;10.52;6.30;;;11.90;99.90;;;;;;4770454;30;20066;-79
2022/10/29 01:13:48;;;;;;;9.77;6.33;;;12.00;99.90;;;;;;4783453;29;20090;-80
2022/10/29 01:16:28;;;;;;;12.50;5.20;;;12.00;99.90;;;;;;4770743;30;20056;-79
2022/10/29 01:19:04;;;;;;;17.52;5.18;;;12.00;99.90;;;;;;4769112;30;20056;-79
2022/10/29 01:21:44;;;;;;;11.55;4.90;;;12.00;99.90;;;;;;4769192;30;20142;-78
2022/10/29 01:24:55;;;;;;;9.45;4.65;;;12.00;99.90;;;;;;4769256;30;20059;-78
2022/10/29 01:27:55;;;;;;;12.40;4.05;;;12.00;99.90;;;;;;4750643;30;20056;-79
2022/10/29 01:30:38;;;;;;;18.48;4.65;;;12.00;99.90;;;;;;4768620;30;20063;-80
2022/10/29 01:33:13;;;;;;;12.10;3.63;;;11.90;99.90;;;;;;4769629;30;20138;-80
2022/10/29 01:35:50;;;;;;;9.90;4.05;;;12.00;99.90;;;;;;4767509;30;20048;-79
2022/10/29 01:38:32;;;;;;;12.38;3.45;;;12.00;99.90;;;;;;4767754;30;20070;-81
2022/10/29 01:41:07;;;;;;;10.00;3.88;;;12.00;99.90;;;;;;4767974;30;20083;-79
2022/10/29 01:43:39;;;;;;;15.73;3.20;;;12.00;99.90;;;;;;4768248;30;20083;-80
2022/10/29 01:46:12;;;;;;;9.57;3.53;;;12.00;99.90;;;;;;4768041;30;20051;-79
2022/10/29 01:48:45;;;;;;;9.85;3.33;;;12.00;99.90;;;;;;4767140;30;20418;-80
2022/10/29 01:51:18;;;;;;;11.65;2.97;;;12.00;99.90;;;;;;4768442;30;20483;-80
2022/10/29 01:53:46;;;;;;;12.63;2.97;;;12.10;99.90;;;;;;4763282;30;20052;-80
2022/10/29 01:56:14;;;;;;;9.52;3.33;;;12.00;99.90;;;;;;4765000;30;20142;-79
2022/10/29 01:58:45;;;;;;;7.10;2.20;;;12.00;99.90;;;;;;4754713;30;20061;-80
2022/10/29 02:01:25;;;;;;;9.57;2.85;;;12.00;99.90;;;;;;4769020;30;20060;-81
2022/10/29 02:04:01;;;;;;;5.40;3.33;;;12.00;99.90;;;;;;4768049;30;20082;-80
2022/10/29 02:06:37;;;;;;;2.50;1.95;;;12.00;99.90;;;;;;4766386;30;20054;-80
2022/10/29 02:09:13;;;;;;;4.85;1.85;;;11.90;99.90;;;;;;4767908;30;20078;-80
2022/10/29 02:11:48;;;;;;;2.20;2.00;;;11.90;99.90;;;;;;4769826;30;20063;-81
2022/10/29 02:14:21;;;;;;;1.98;1.52;;;11.80;99.90;;;;;;4768917;30;20056;-80
2022/10/29 02:16:49;;;;;;;2.85;1.60;;;11.80;99.90;;;;;;4770669;30;20089;-79
2022/10/29 02:19:21;;;;;;;1.85;1.70;;;11.80;99.90;;;;;;4754630;30;20051;-81
2022/10/29 02:21:50;;;;;;;5.15;2.03;;;11.80;99.90;;;;;;4782461;30;20067;-81
2022/10/29 02:24:18;;;;;;;2.72;1.85;;;11.80;99.90;;;;;;4796874;29;20537;-81
2022/10/29 02:26:45;;;;;;;2.50;1.50;;;11.80;99.90;;;;;;4770192;30;20048;-80
2022/10/29 02:29:12;;;;;;;4.57;1.95;;;11.90;99.90;;;;;;4767339;30;20498;-79
2022/10/29 02:31:40;;;;;;;3.20;2.28;;;11.90;99.90;;;;;;4784848;30;20137;-80
2022/10/29 02:34:07;;;;;;;11.98;3.22;;;11.90;99.90;;;;;;4767716;30;20066;-81
2022/10/29 02:36:37;;;;;;;11.05;2.97;;;11.90;99.90;;;;;;4767016;30;20151;-81
2022/10/29 02:39:04;;;;;;;11.40;3.00;;;11.90;99.90;;;;;;4769634;30;20102;-81
2022/10/29 02:41:37;;;;;;;11.20;3.20;;;11.90;99.90;;;;;;4768072;30;20059;-80
2022/10/29 02:44:05;;;;;;;12.68;4.35;;;11.90;99.90;;;;;;4768291;30;20060;-79
2022/10/29 02:46:38;;;;;;;6.50;3.58;;;11.90;99.90;;;;;;4767664;30;20059;-80
2022/10/29 02:49:06;;;;;;;7.80;3.33;;;12.00;99.90;;;;;;4797210;29;20439;-80
2022/10/29 02:51:34;;;;;;;8.57;3.30;;;12.00;99.90;;;;;;4796606;29;20109;-81
2022/10/29 02:54:04;;;;;;;9.25;3.10;;;11.90;99.90;;;;;;4766894;30;20048;-80
2022/10/29 02:56:32;;;;;;;8.80;3.95;;;12.00;99.90;;;;;;4767073;30;20055;-80
2022/10/29 02:58:59;;;;;;;12.93;4.00;;;12.00;99.90;;;;;;4795628;29;20140;-80
2022/10/29 03:01:26;;;;;;;12.48;4.25;;;12.00;99.90;;;;;;4766955;30;20058;-80
2022/10/29 03:03:54;;;;;;;15.68;4.78;;;11.90;99.90;;;;;;4780455;29;20425;-78
2022/10/29 03:06:21;;;;;;;5.65;3.75;;;11.90;99.90;;;;;;4790018;29;20142;-80
2022/10/29 03:08:48;;;;;;;7.28;4.80;;;11.90;99.90;;;;;;4765984;30;20486;-80
2022/10/29 03:11:17;;;;;;;6.13;4.57;;;11.90;99.90;;;;;;4767738;30;20083;-80
2022/10/29 03:13:45;;;;;;;6.53;4.38;;;12.00;99.90;;;;;;4767540;30;20109;-81
2022/10/29 03:16:12;;;;;;;6.90;4.75;;;12.00;99.90;;;;;;4796611;29;20056;-81
2022/10/29 03:18:39;;;;;;;8.45;5.45;;;12.00;99.90;;;;;;4750813;30;20079;-81
2022/10/29 03:21:06;;;;;;;12.15;6.00;;;12.00;99.90;;;;;;4766625;30;20640;-80
2022/10/29 03:23:34;;;;;;;14.38;7.32;;;12.00;99.90;;;;;;4796538;29;20098;-79
2022/10/29 03:26:01;;;;;;;14.85;6.85;;;12.00;99.90;;;;;;4760660;30;20087;-79
2022/10/29 03:28:30;;;;;;;15.25;7.55;;;12.00;99.90;;;;;;4753380;30;20055;-79
2022/10/29 03:30:57;;;;;;;13.68;7.60;;;12.00;99.90;;;;;;4767987;30;20109;-79
2022/10/29 03:33:25;;;;;;;8.15;5.03;;;12.00;99.90;;;;;;4767684;30;20395;-79
2022/10/29 03:35:57;;;;;;;5.38;4.68;;;11.90;99.90;;;;;;4774690;30;20063;-79
2022/10/29 03:38:24;;;;;;;7.35;5.13;;;11.90;99.90;;;;;;4796162;29;20146;-81
2022/10/29 03:40:54;;;;;;;3.50;3.20;;;11.90;99.90;;;;;;4767893;30;20052;-80
2022/10/29 03:43:22;;;;;;;3.95;3.15;;;11.90;99.90;;;;;;4766077;30;20056;-79
2022/10/29 03:45:55;;;;;;;4.68;4.20;;;12.00;99.90;;;;;;4766941;30;20150;-79
2022/10/29 03:48:22;;;;;;;;;;;12.00;99.90;;;;;;4769341;30;20138;-79
2022/10/29 03:51:01;;;;;;;3.58;3.28;;;12.00;99.90;;;;;;4799577;29;20022;-79
2022/10/29 03:53:30;;;;;;;4.05;3.65;;;12.00;99.90;;;;;;4771143;30;20421;-81
2022/10/29 03:55:58;;;;;;;3.80;3.50;;;12.00;99.90;;;;;;4772078;30;20600;-80
2022/10/29 03:58:25;;;;;;;4.18;3.88;;;11.90;99.90;;;;;;4771191;30;20044;-80
2022/10/29 04:00:59;;;;;;;4.22;3.83;;;12.00;99.90;;;;;;4771290;30;20083;-80
2022/10/29 04:03:29;;;;;;;4.68;4.15;;;11.90;99.90;;;;;;4769595;30;20067;-81
2022/10/29 04:05:59;;;;;;;5.00;4.55;;;11.90;99.90;;;;;;4765353;30;20056;-80
2022/10/29 04:08:26;;;;;;;5.50;5.00;;;12.00;99.90;;;;;;4795812;29;20146;-80
2022/10/29 04:10:53;;;;;;;7.05;5.10;;;12.00;99.90;;;;;;4789791;29;20079;-80
2022/10/29 04:13:21;;;;;;;5.68;4.32;;;12.00;99.90;;;;;;4770600;29;20079;-80
2022/10/29 04:15:48;;;;;;;6.22;4.80;;;12.00;99.90;;;;;;4772214;30;20190;-79
2022/10/29 04:18:17;;;;;;;9.50;5.38;;;12.00;99.90;;;;;;4788060;29;20051;-82
2022/10/29 04:20:44;;;;;;;6.88;5.35;;;12.00;99.90;;;;;;4791822;29;20048;-80
2022/10/29 04:23:11;;;;;;;6.25;5.10;;;11.90;99.90;;;;;;4769470;30;20066;-81
2022/10/29 04:25:38;;;;;;;6.15;5.53;;;11.90;99.90;;;;;;4770938;30;20145;-80
2022/10/29 04:28:05;;;;;;;6.93;5.97;;;11.90;99.90;;;;;;4770812;30;20109;-81
2022/10/29 04:30:33;;;;;;;16.25;6.28;;;11.90;99.90;;;;;;4770225;30;20059;-81
2022/10/29 04:33:00;;;;;;;8.23;5.45;;;11.90;99.90;;;;;;4771562;30;20104;-80
2022/10/29 04:35:29;;;;;;;7.68;6.00;;;11.90;99.90;;;;;;4769695;30;20475;-80
2022/10/29 04:37:56;;;;;;;10.65;6.00;;;12.00;99.90;;;;;;4784395;29;20407;-82
2022/10/29 04:40:25;;;;;;;7.38;5.65;;;12.00;99.90;;;;;;4762701;30;20146;-82
2022/10/29 04:42:53;;;;;;;5.90;4.65;;;11.90;99.90;;;;;;4755833;30;20079;-83
2022/10/29 04:45:21;;;;;;;8.10;5.60;;;12.00;99.90;;;;;;4753998;30;20490;-82
2022/10/29 04:47:48;;;;;;;7.53;5.45;;;12.00;99.90;;;;;;4769265;30;20109;-79
2022/10/29 04:50:15;;;;;;;13.15;6.35;;;12.00;99.90;;;;;;4768936;30;20138;-79
2022/10/29 04:52:53;;;;;;;7.93;5.35;;;12.00;99.90;;;;;;4769082;30;20120;-80
2022/10/29 04:55:22;;;;;;;7.47;5.82;;;12.00;99.90;;;;;;4767880;30;20059;-83
2022/10/29 04:57:49;;;;;;;8.57;5.95;;;12.00;99.90;;;;;;4766898;30;20518;-79
2022/10/29 05:00:17;;;;;;;8.93;5.75;;;12.00;99.90;;;;;;4770699;30;20521;-85
2022/10/29 05:02:49;;;;;;;8.57;5.25;;;12.10;99.90;;;;;;4787980;29;20497;-84
2022/10/29 05:05:16;;;;;;;6.90;5.43;;;12.10;99.90;;;;;;4776671;30;20059;-87
2022/10/29 05:07:45;;;;;;;9.15;7.03;;;12.10;99.90;;;;;;4753897;30;20054;-87
2022/10/29 05:10:15;;;;;;;7.65;4.93;;;12.10;99.90;;;;;;4784147;29;20083;-85
2022/10/29 05:12:45;;;;;;;7.78;6.18;;;12.10;99.90;;;;;;4772436;30;20231;-88
2022/10/29 05:15:13;;;;;;;9.50;6.15;;;12.10;99.90;;;;;;4769315;30;20047;-87
2022/10/29 05:17:41;;;;;;;8.32;5.43;;;12.10;99.90;;;;;;4760433;30;20429;-82
2022/10/29 05:20:09;;;;;;;8.25;5.43;;;12.20;99.90;;;;;;4780016;30;20125;-84
2022/10/29 05:22:38;;;;;;;12.15;6.55;;;12.20;99.90;;;;;;4790482;29;20058;-81
2022/10/29 05:25:12;;;;;;;11.15;6.55;;;12.20;99.90;;;;;;4764156;30;20277;-79
2022/10/29 05:27:39;;;;;;;11.65;7.85;;;12.10;99.90;;;;;;4768498;30;20074;-80
2022/10/29 05:30:11;;;;;;;10.57;7.05;;;12.10;99.90;;;;;;4768329;30;20083;-80
2022/10/29 05:32:38;;;;;;;9.02;6.47;;;12.10;99.90;;;;;;4766276;30;20281;-81
2022/10/29 05:35:08;;;;;;;12.50;8.23;;;12.10;99.90;;;;;;4789809;29;20528;-80
2022/10/29 05:37:39;;;;;;;13.25;8.38;;;12.10;99.90;;;;;;4768103;30;20047;-74
2022/10/29 05:40:10;;;;;;;16.80;7.28;;;12.10;99.90;;;;;;4770308;30;20109;-82
2022/10/29 05:42:42;;;;;;;15.75;7.60;;;12.10;99.90;;;;;;4773614;30;20055;-76
2022/10/29 05:45:13;;;;;;;15.02;6.93;;;12.20;99.90;;;;;;4758515;30;20055;-78
2022/10/29 05:47:41;;;;;;;10.02;7.07;;;12.20;99.90;;;;;;4770229;30;20051;-79
2022/10/29 05:50:08;;;;;;;14.07;7.40;;;12.20;99.90;;;;;;4768949;30;20055;-81
2022/10/29 05:52:36;;;;;;;10.18;7.07;;;12.20;99.90;;;;;;4767580;30;20060;-80
2022/10/29 05:55:03;;;;;;;11.00;7.85;;;12.20;99.90;;;;;;4754302;30;20051;-80
2022/10/29 05:57:32;;;;;;;12.25;7.03;;;12.20;99.90;;;;;;4783267;29;20055;-78
2022/10/29 05:59:59;;;;;;;15.40;8.55;;;12.20;99.90;;;;;;4796787;29;20521;-78
2022/10/29 06:02:26;;;;;;;15.98;7.90;;;12.20;99.90;;;;;;4768935;30;20150;-79
2022/10/29 06:04:53;;;;;;;14.25;9.15;;;12.20;99.90;;;;;;4768061;30;20060;-79
2022/10/29 06:07:21;;;;;;;18.33;8.15;;;12.20;99.90;;;;;;4765436;30;20241;-79
2022/10/29 06:09:48;;;;;;;14.02;7.60;;;12.20;99.90;;;;;;4765758;30;20047;-81
2022/10/29 06:12:15;;;;;;;13.23;8.32;;;12.20;99.90;;;;;;4766785;30;20059;-79
2022/10/29 06:14:48;;;;;;;13.13;8.18;;;12.20;99.90;;;;;;4765626;30;20055;-80
2022/10/29 06:17:16;;;;;;;14.60;8.35;;;12.30;99.90;;;;;;4768202;30;20055;-83
2022/10/29 06:19:43;;;;;;;14.50;9.15;;;12.20;99.90;;;;;;4768230;30;20506;-83
2022/10/29 06:22:10;;;;;;;13.93;9.55;;;12.30;99.90;;;;;;4769960;30;20151;-82
2022/10/29 06:24:37;;;;;;;18.40;9.32;;;12.30;99.90;;;;;;4767577;30;20117;-81
2022/10/29 06:27:13;;;;;;;22.55;11.82;;;12.30;99.90;;;;;;4772177;30;20142;-81
2022/10/29 06:29:48;;;;;;;15.48;8.82;;;12.30;99.90;;;;;;4770253;30;20052;-83
2022/10/29 06:32:16;;;;;;;12.27;9.00;;;12.30;99.90;;;;;;4769270;30;20521;-83
2022/10/29 06:34:43;;;;;;;20.10;11.15;;;12.30;99.90;;;;;;4776145;30;20113;-81
2022/10/29 06:37:12;;;;;;;17.05;10.50;;;12.40;99.90;;;;;;4769917;30;20060;-82
2022/10/29 06:39:40;;;;;;;11.98;8.20;;;12.40;99.90;;;;;;4769846;30;20067;-81
2022/10/29 06:42:08;;;;;;;15.65;9.18;;;12.40;99.90;;;;;;4771599;30;20048;-84
2022/10/29 06:44:35;;;;;;;14.48;7.68;;;12.40;99.90;;;;;;4769164;30;20086;-84
2022/10/29 06:47:04;;;;;;;14.93;7.88;;;12.40;99.90;;;;;;4774012;30;20052;-82
2022/10/29 06:49:32;;;;;;;17.05;9.10;;;12.40;99.90;;;;;;4772024;30;20056;-86
2022/10/29 06:52:00;;;;;;;16.45;8.68;;;12.40;99.90;;;;;;4772142;30;20052;-86
2022/10/29 06:54:27;;;;;;;9.82;8.05;;;12.40;99.90;;;;;;4770418;30;20281;-84
2022/10/29 06:56:57;;;;;;;12.80;8.20;;;12.40;99.90;;;;;;4757306;30;20517;-83
2022/10/29 06:59:26;;;;;;;13.00;7.75;;;12.40;99.90;;;;;;4768876;30;20075;-82
2022/10/29 07:01:59;;;;;;;12.75;7.05;;;12.40;99.90;;;;;;4788130;30;20468;-85
2022/10/29 07:04:55;;;;;;;12.77;7.28;;;12.40;99.90;;;;;;4757125;30;20123;-82
2022/10/29 07:07:22;;;;;;;8.00;5.78;;;12.40;99.90;;;;;;4772153;30;20062;-85
2022/10/29 07:09:57;;;;;;;13.10;6.82;;;12.40;99.90;;;;;;4772181;30;20529;-83
2022/10/29 07:12:24;;;;;;;11.45;6.05;;;12.40;99.90;;;;;;4769886;30;20052;-85
2022/10/29 07:14:53;;;;;;;7.70;6.15;;;12.40;99.90;;;;;;4769591;30;20214;-85
2022/10/29 07:17:22;;;;;;;6.30;5.13;;;12.50;99.90;;;;;;4787648;29;20066;-85
2022/10/29 07:19:54;;;;;;;8.60;4.93;;;12.40;99.90;;;;;;4782569;29;20131;-86
2022/10/29 07:22:21;;;;;;;8.13;5.30;;;12.40;99.90;;;;;;4768861;30;20101;-83
2022/10/29 07:24:49;;;;;;;7.82;4.43;;;12.40;99.90;;;;;;4802020;29;20280;-84
2022/10/29 07:27:16;;;;;;;6.00;4.30;;;12.40;99.90;;;;;;4774595;30;20128;-84
2022/10/29 07:29:44;;;;;;;4.97;4.22;;;12.50;99.90;;;;;;4772191;30;20059;-83
2022/10/29 07:32:11;;;;;;;7.15;4.65;;;12.50;99.90;;;;;;4770005;30;20051;-83
2022/10/29 07:34:38;;;;;;;5.30;4.40;;;12.40;99.90;;;;;;4771930;30;20056;-84
2022/10/29 07:37:07;;;;;;;4.85;4.35;;;12.50;99.90;;;;;;4786403;30;20052;-83
2022/10/29 07:39:34;;;;;;;5.97;4.93;;;12.50;99.90;;;;;;4772386;30;20051;-84
2022/10/29 07:42:02;;;;;;;6.22;5.57;;;12.40;99.90;;;;;;4772292;30;20543;-83
2022/10/29 07:44:29;;;;;;;8.80;4.00;;;12.50;99.90;;;;;;4773106;30;20048;-83
2022/10/29 07:46:56;;;;;;;5.05;4.00;;;12.50;99.90;;;;;;4771257;30;20191;-87
2022/10/29 07:49:24;;;;;;;6.80;5.43;;;12.50;99.90;;;;;;4770397;30;20055;-83
2022/10/29 07:51:51;;;;;;;6.78;4.80;;;12.50;99.90;;;;;;4801851;29;20055;-83
2022/10/29 07:54:21;;;;;;;6.88;4.53;;;12.50;99.90;;;;;;4766566;30;20079;-82
2022/10/29 07:56:51;;;;;;;6.88;4.93;;;12.50;99.90;;;;;;4775620;30;20055;-85
2022/10/29 07:59:19;;;;;;;4.43;4.03;;;12.50;99.90;;;;;;4771791;30;20056;-82
2022/10/29 08:01:46;;;;;;;7.50;4.03;;;12.50;99.90;;;;;;4778859;30;20048;-83
2022/10/29 08:04:14;;;;;;;7.57;4.55;;;12.50;99.90;;;;;;4771177;30;20087;-81
2022/10/29 08:06:45;;;;;;;5.88;4.20;;;12.50;99.90;;;;;;4772040;30;20394;-85
2022/10/29 08:09:13;;;;;;;6.35;4.10;;;12.50;99.90;;;;;;4769462;30;20055;-84
2022/10/29 08:11:42;;;;;;;6.32;4.30;;;12.50;99.90;;;;;;4768472;30;20047;-84
2022/10/29 08:14:11;;;;;;;6.13;3.80;;;12.60;99.90;;;;;;4777213;30;20055;-84
2022/10/29 08:16:39;;;;;;;7.57;5.03;;;12.60;99.90;;;;;;4777931;30;20067;-82
2022/10/29 08:19:06;;;;;;;6.85;4.80;;;12.60;99.90;;;;;;4774175;30;20130;-81
2022/10/29 08:21:33;;;;;;;5.93;4.57;;;12.60;99.90;;;;;;4769822;30;20345;-81
2022/10/29 08:24:00;;;;;;;5.68;4.63;;;12.60;99.90;;;;;;4768374;30;20086;-82
2022/10/29 08:26:28;;;;;;;6.93;4.82;;;12.60;99.90;;;;;;4792587;29;20058;-84
2022/10/29 08:28:57;;;;;;;6.18;4.88;;;12.60;99.90;;;;;;4767674;30;20113;-83
2022/10/29 08:31:24;;;;;;;6.38;5.32;;;12.60;99.90;;;;;;4782708;30;20059;-81
2022/10/29 08:33:52;;;;;;;6.20;5.13;;;12.50;99.90;;;;;;4771206;30;20094;-82
2022/10/29 08:36:20;;;;;;;8.15;5.30;;;12.50;99.90;;;;;;4772315;30;20433;-82
2022/10/29 08:38:51;;;;;;;7.05;5.00;;;12.60;99.90;;;;;;4773500;30;20066;-82
2022/10/29 08:41:38;;;;;;;6.70;5.28;;;12.60;99.90;;;;;;4801103;29;20094;-84
2022/10/29 08:44:33;;;;;;;6.95;5.10;;;12.60;99.90;;;;;;4771109;30;20158;-83
2022/10/29 08:47:12;;;;;;;5.72;5.10;;;12.70;99.90;;;;;;4773674;30;20058;-84
2022/10/29 08:50:02;;;;;;;5.63;5.07;;;12.60;99.90;;;;;;4767755;30;20478;-84
2022/10/29 08:52:35;;;;;;;7.45;5.07;;;12.70;99.90;;;;;;4769821;30;20105;-84
2022/10/29 08:55:07;;;;;;;10.47;5.60;;;12.70;99.90;;;;;;4771497;30;20056;-81
2022/10/29 08:57:42;;;;;;;5.40;4.85;;;12.70;99.90;;;;;;4772537;30;20060;-83
2022/10/29 09:00:18;;;;;;;5.97;5.40;;;12.70;99.90;;;;;;4796410;29;20086;-83
2022/10/29 09:02:46;;;;;;;9.52;6.05;;;12.70;99.90;;;;;;4783306;29;20059;-83
2022/10/29 09:05:15;;;;;;;8.77;5.80;;;12.80;99.90;;;;;;4768176;30;20055;-84
2022/10/29 09:07:54;;;;;;;9.63;6.20;;;12.80;99.90;;;;;;4769083;30;20052;-82
2022/10/29 09:10:31;;;;;;;8.27;5.50;;;12.80;99.90;;;;;;4796868;29;20142;-82
2022/10/29 09:13:28;;;;;;;7.57;5.38;;;12.80;99.90;;;;;;4762754;30;20140;-86
2022/10/29 09:16:15;;;;;;;11.73;6.57;;;12.80;99.90;;;;;;4768482;30;20725;-80
2022/10/29 09:18:57;;;;;;;9.02;6.25;;;12.80;99.90;;;;;;4768431;30;20142;-83
2022/10/29 09:21:32;;;;;;;12.48;6.25;;;12.80;99.90;;;;;;4765458;30;20058;-78
2022/10/29 09:24:10;;;;;;;9.20;6.80;;;12.80;99.90;;;;;;4763697;30;20077;-80
2022/10/29 09:26:48;;;;;;;8.60;6.82;;;12.80;99.90;;;;;;4767218;30;20528;-76
2022/10/29 09:29:38;;;;;;;8.48;6.78;;;12.90;99.90;;;;;;4770429;29;20113;-77
2022/10/29 09:32:13;;;;;;;10.15;6.90;;;12.80;99.90;;;;;;4763483;29;20059;-82
2022/10/29 09:34:47;;;;;;;10.57;6.60;;;12.80;99.90;;;;;;4764284;30;20562;-76
2022/10/29 09:37:16;;;;;;;7.90;5.57;;;12.80;99.90;;;;;;4764087;29;20059;-76
2022/10/29 09:39:48;;;;;;;7.30;6.43;;;12.80;99.90;;;;;;4761822;30;20082;-78
2022/10/29 09:42:24;;;;;;;8.73;6.55;;;12.80;99.90;;;;;;4776154;29;20047;-78
2022/10/29 09:44:55;;;;;;;10.43;6.78;;;12.80;99.90;;;;;;4762518;30;20143;-78
2022/10/29 09:47:40;;;;;;;7.03;6.15;;;12.80;99.90;;;;;;4765354;30;20124;-78
2022/10/29 09:50:20;;;;;;;7.22;5.95;;;12.90;99.90;;;;;;4764145;30;20097;-82
2022/10/29 09:52:53;;;;;;;6.95;5.55;;;12.90;99.90;;;;;;4764208;30;20051;-81
2022/10/29 09:55:26;;;;;;;11.07;5.80;;;12.90;99.90;;;;;;4765421;30;20067;-82
2022/10/29 09:57:56;;;;;;;10.73;6.43;;;12.90;99.90;;;;;;4795508;29;20062;-83
2022/10/29 10:00:26;;;;;;;8.40;5.95;;;12.90;99.90;;;;;;4764129;30;20067;-83
2022/10/29 10:03:01;;;;;;;11.27;6.03;;;12.90;99.90;;;;;;4765387;30;20062;-80
2022/10/29 10:05:34;;;;;;;6.45;4.85;;;12.90;99.90;;;;;;4765888;30;20060;-81
2022/10/29 10:08:12;;;;;;;10.93;6.68;;;12.90;99.90;;;;;;4766821;30;20112;-79
2022/10/29 10:10:51;;;;;;;6.75;5.68;;;12.80;99.90;;;;;;4766888;30;20047;-80
2022/10/29 10:13:21;;;;;;;8.63;5.53;;;12.80;99.90;;;;;;4766642;30;20059;-82
2022/10/29 10:15:54;;;;;;;10.10;6.03;;;12.80;99.90;;;;;;4772358;30;20114;-79
2022/10/29 10:18:26;;;;;;;9.50;5.30;;;12.80;99.90;;;;;;4767431;29;20454;-78
2022/10/29 10:21:07;;;;;;;8.67;5.73;;;12.80;99.90;;;;;;4767761;30;20686;-81
2022/10/29 10:23:44;;;;;;;9.43;5.85;;;12.80;99.90;;;;;;4769445;29;20044;-77
2022/10/29 10:26:35;;;;;;;9.98;6.97;;;12.80;99.90;;;;;;4768084;30;20080;-81
2022/10/29 10:29:10;;;;;;;8.27;6.63;;;12.80;99.90;;;;;;4765221;30;20751;-78
2022/10/29 10:31:40;;;;;;;6.38;5.47;;;12.80;99.90;;;;;;4785378;29;20085;-83
2022/10/29 10:34:18;;;;;;;10.35;5.43;;;12.90;99.90;;;;;;4786142;29;20063;-82
2022/10/29 10:36:51;;;;;;;8.70;5.75;;;12.90;99.90;;;;;;4768346;30;20094;-82
2022/10/29 10:39:28;;;;;;;12.13;6.35;;;13.00;99.90;;;;;;4768404;30;20058;-77
2022/10/29 10:41:57;;;;;;;6.00;5.20;;;13.00;99.90;;;;;;4767554;30;20071;-77
2022/10/29 10:44:24;;;;;;;6.13;4.57;;;13.10;99.90;;;;;;4765626;30;20105;-82
2022/10/29 10:46:55;;;;;;;5.97;5.00;;;13.20;99.90;;;;;;4763763;30;20059;-82
2022/10/29 10:49:35;;;;;;;4.68;4.13;;;13.30;99.90;;;;;;4765780;30;20084;-83
2022/10/29 10:52:14;;;;;;;4.45;3.90;;;13.40;99.90;;;;;;4767530;30;20079;-81
2022/10/29 10:54:46;;;;;;;5.18;3.80;;;13.50;99.90;;;;;;4766869;30;20063;-86
2022/10/29 10:57:22;;;;;;;6.30;4.03;;;13.60;99.90;;;;;;4765947;30;20094;-81
2022/10/29 11:00:00;;;;;;;5.40;4.15;;;13.60;99.90;;;;;;4768879;30;20055;-82
2022/10/29 11:02:37;;;;;;;7.90;4.03;;;13.70;99.90;;;;;;4765913;30;20166;-81
2022/10/29 11:05:23;;;;;;;8.30;5.00;;;13.70;99.90;;;;;;4777383;29;20059;-81
2022/10/29 11:07:59;;;;;;;5.90;4.00;;;13.60;99.90;;;;;;4764429;30;20051;-78
2022/10/29 11:10:34;;;;;;;6.20;4.43;;;13.70;99.90;;;;;;4764610;30;20052;-78
2022/10/29 11:13:08;;;;;;;5.90;4.22;;;13.70;99.90;;;;;;4762395;30;20047;-82
2022/10/29 11:15:44;;;;;;;8.32;5.68;;;13.70;99.90;;;;;;4765892;30;20054;-84
2022/10/29 11:18:18;;;;;;;6.07;5.07;;;13.70;99.90;;;;;;4765948;30;20060;-83
2022/10/29 11:21:02;;;;;;;5.30;3.85;;;13.70;99.90;;;;;;4769519;30;20093;-85
2022/10/29 11:23:43;;;;;;;5.40;4.82;;;13.80;99.90;;;;;;4767462;30;20060;-82
2022/10/29 11:26:19;;;;;;;4.72;4.30;;;13.80;99.90;;;;;;4768965;30;20064;-84
2022/10/29 11:28:52;;;;;;;6.82;4.30;;;13.80;99.90;;;;;;4782007;29;20055;-79
2022/10/29 11:31:27;;;;;;;5.97;4.28;;;13.80;99.90;;;;;;4767201;30;20548;-79
2022/10/29 11:34:03;;;;;;;4.68;3.92;;;13.80;99.90;;;;;;4739121;29;20198;-78
2022/10/29 11:36:39;;;;;;;6.47;4.65;;;13.80;99.90;;;;;;4764129;29;20056;-77
2022/10/29 11:39:15;;;;;;;4.07;3.67;;;13.80;99.90;;;;;;4767163;30;20395;-81
2022/10/29 11:41:47;;;;;;;4.80;3.83;;;13.80;99.90;;;;;;4761458;30;20504;-80
2022/10/29 11:44:19;;;;;;;3.63;3.33;;;13.80;99.90;;;;;;4763826;30;20052;-82
2022/10/29 11:46:58;;;;;;;3.67;3.37;;;13.80;99.90;;;;;;4776616;29;20321;-79
2022/10/29 11:49:40;;;;;;;3.17;2.88;;;13.70;99.90;;;;;;4763127;30;20055;-78
2022/10/29 11:52:13;;;;;;;3.42;3.00;;;13.70;99.90;;;;;;4794539;29;20470;-78
2022/10/29 11:54:53;;;;;;;5.23;3.30;;;13.60;99.90;;;;;;4766831;30;20055;-80
2022/10/29 11:57:27;;;;;;;3.95;3.13;;;13.60;99.90;;;;;;4765861;30;20151;-81
2022/10/29 12:00:20;;;;;;;3.92;3.47;;;13.50;99.90;;;;;;4765601;30;20102;-81
2022/10/29 12:02:57;;;;;;;;;;;13.50;99.90;;;;;;4792580;29;20134;-77
2022/10/29 12:05:30;;;;;;;6.50;2.80;;;13.50;99.90;;;;;;4765185;30;20003;-76
2022/10/29 12:08:08;;;;;;;;;;;13.50;99.90;;;;;;4764898;30;20055;-77
2022/10/29 12:10:47;;;;;;;3.08;2.70;;;13.50;99.90;;;;;;4769373;30;20416;-76
2022/10/29 12:13:26;;;;;;;2.67;2.25;;;13.60;99.90;;;;;;4768609;30;20060;-80
2022/10/29 12:16:09;;;;;;;3.33;2.85;;;13.60;99.90;;;;;;4768783;30;20062;-78
2022/10/29 12:18:45;;;;;;;6.78;3.58;;;13.60;99.90;;;;;;4758039;30;20063;-79
2022/10/29 12:21:19;;;;;;;2.83;2.63;;;13.60;99.90;;;;;;4792005;29;20109;-81
2022/10/29 12:23:56;;;;;;;7.57;2.60;;;13.60;99.90;;;;;;4768429;30;20170;-83
2022/10/29 12:26:30;;;;;;;3.20;2.90;;;13.50;99.90;;;;;;4794496;29;20048;-82
2022/10/29 12:29:07;;;;;;;3.72;3.42;;;13.50;99.90;;;;;;4764136;30;20055;-82
2022/10/29 12:31:44;;;;;;;3.30;3.10;;;13.40;99.90;;;;;;4770590;30;20068;-81
2022/10/29 12:34:25;;;;;;;3.88;3.10;;;13.30;99.90;;;;;;4766118;30;20058;-81
2022/10/29 12:36:59;;;;;;;2.85;2.65;;;13.20;99.90;;;;;;4765741;30;20495;-79
2022/10/29 12:39:32;;;;;;;4.28;2.53;;;13.10;99.90;;;;;;4798032;29;20047;-79
2022/10/29 12:42:03;;;;;;;3.17;2.33;;;13.10;99.90;;;;;;4766421;30;20535;-79
2022/10/29 12:44:39;;;;;;;3.45;2.78;;;13.00;99.90;;;;;;4769909;30;20564;-79
2022/10/29 12:47:12;;;;;;;2.95;2.67;;;13.00;99.90;;;;;;4768347;30;20425;-80
2022/10/29 12:49:53;;;;;;;3.10;2.90;;;13.00;99.90;;;;;;4770105;30;20066;-80
2022/10/29 12:52:31;;;;;;;3.05;2.75;;;13.00;99.90;;;;;;4766051;30;20142;-79
2022/10/29 12:55:02;;;;;;;5.57;3.33;;;13.00;99.90;;;;;;4766056;30;20548;-80
2022/10/29 12:57:33;;;;;;;3.60;2.95;;;13.00;99.90;;;;;;4766706;30;20085;-79
2022/10/29 13:00:32;;;;;;;4.65;3.10;;;13.00;99.90;;;;;;4766050;30;20359;-81
2022/10/29 13:03:00;;;;;;;3.60;2.83;;;13.00;99.90;;;;;;4770631;30;20064;-84
2022/10/29 13:05:46;;;;;;;3.90;3.45;;;12.90;99.90;;;;;;4752310;30;20109;-79
2022/10/29 13:08:34;;;;;;;5.10;3.00;;;12.80;99.90;;;;;;4767151;30;20715;-78